createdAt,value
2023-03-30T09:45:40.920Z,14.98
2023-03-30T09:48:09.401Z,7.53
2023-03-30T09:50:43.458Z,6.72
2023-03-30T09:53:22.601Z,18.58
2023-03-30T09:55:59.112Z,15.20
2023-03-30T09:58:30.896Z,13.02
2023-03-30T10:01:08.820Z,22.77
2023-03-30T10:03:36.824Z,21.75
2023-03-30T10:06:09.169Z,24.90
2023-03-30T10:08:43.864Z,47.15
2023-03-30T10:11:12.149Z,47.45
2023-03-30T10:13:43.093Z,33.33
2023-03-30T10:16:25.354Z,22.95
2023-03-30T10:19:05.304Z,20.20
2023-03-30T10:21:39.307Z,28.60
2023-03-30T10:24:15.282Z,17.77
2023-03-30T10:26:47.041Z,32.28
2023-03-30T10:29:18.782Z,21.40
2023-03-30T10:31:51.496Z,31.73
2023-03-30T10:34:23.987Z,37.80
2023-03-30T10:36:55.075Z,32.08
2023-03-30T10:39:30.536Z,58.70
2023-03-30T10:42:02.055Z,54.30
2023-03-30T10:44:46.650Z,56.30
2023-03-30T10:47:50.867Z,77.60
2023-03-30T10:50:30.975Z,24.02
2023-03-30T10:53:33.448Z,29.63
2023-03-30T10:56:12.424Z,37.30
2023-03-30T10:58:42.150Z,31.40
2023-03-30T11:01:30.543Z,29.95
2023-03-30T11:04:16.036Z,37.50
2023-03-30T11:06:51.157Z,29.25
2023-03-30T11:09:27.807Z,24.20
2023-03-30T11:12:06.089Z,14.20
2023-03-30T11:14:53.614Z,25.83
2023-03-30T11:17:27.533Z,29.88
2023-03-30T11:19:58.622Z,19.15
2023-03-30T11:25:21.396Z,19.00
2023-03-30T11:28:00.207Z,20.85
2023-03-30T11:30:30.565Z,45.47
2023-03-30T11:33:06.927Z,31.30
2023-03-30T11:35:56.308Z,31.95
2023-03-30T11:38:48.368Z,40.92
2023-03-30T11:41:23.897Z,19.77
2023-03-30T11:43:56.287Z,18.40
2023-03-30T11:46:40.776Z,14.65
2023-03-30T11:49:52.412Z,15.82
2023-03-30T11:52:36.192Z,16.10
2023-03-30T11:55:12.217Z,7.68
2023-03-30T11:58:00.052Z,19.05
2023-03-30T12:00:32.956Z,12.65
2023-03-30T12:03:14.203Z,17.10
2023-03-30T12:05:46.392Z,7.82
2023-03-30T12:08:21.411Z,6.50
2023-03-30T12:10:55.688Z,7.85
2023-03-30T12:13:22.955Z,6.85
2023-03-30T12:16:01.198Z,4.20
2023-03-30T12:18:40.385Z,6.97
2023-03-30T12:21:41.636Z,7.63
2023-03-30T12:24:34.548Z,12.73
2023-03-30T12:27:06.103Z,19.88
2023-03-30T12:30:15.337Z,9.80
2023-03-30T12:33:02.559Z,11.02
2023-03-30T12:35:48.513Z,14.00
2023-03-30T12:38:23.924Z,19.50
2023-03-30T12:41:14.845Z,12.15
2023-03-30T12:44:17.921Z,10.15
2023-03-30T12:47:12.979Z,10.48
2023-03-30T12:50:12.911Z,17.70
2023-03-30T12:53:03.805Z,22.50
2023-03-30T12:58:17.532Z,37.90
2023-03-30T13:01:13.239Z,35.28
2023-03-30T13:03:53.241Z,18.65
2023-03-30T13:06:32.670Z,16.83
2023-03-30T13:09:08.623Z,19.13
2023-03-30T13:11:46.326Z,16.33
2023-03-30T13:14:39.659Z,11.20
2023-03-30T13:17:20.961Z,13.10
2023-03-30T13:20:26.178Z,23.50
2023-03-30T13:23:12.008Z,23.67
2023-03-30T13:25:50.210Z,20.95
2023-03-30T13:28:38.600Z,12.75
2023-03-30T13:31:27.337Z,11.32
2023-03-30T13:34:05.372Z,13.43
2023-03-30T13:36:38.334Z,16.55
2023-03-30T13:39:19.284Z,22.23
2023-03-30T13:41:56.145Z,78.63
2023-03-30T13:44:29.202Z,60.17
2023-03-30T13:47:14.604Z,47.92
2023-03-30T13:50:03.892Z,27.63
2023-03-30T13:52:38.374Z,19.00
2023-03-30T13:55:16.437Z,10.70
2023-03-30T13:57:44.994Z,22.35
2023-03-30T14:00:28.851Z,27.77
2023-03-30T14:02:56.373Z,30.70
2023-03-30T14:05:26.781Z,31.10
2023-03-30T14:07:58.582Z,35.75
2023-03-30T14:10:27.402Z,27.45
2023-03-30T14:12:57.107Z,17.88
2023-03-30T14:15:40.169Z,46.08
2023-03-30T14:18:13.595Z,40.30
2023-03-30T14:21:03.310Z,29.38
2023-03-30T14:23:40.972Z,19.85
2023-03-30T14:26:23.017Z,41.08
2023-03-30T14:28:57.837Z,23.13
2023-03-30T14:31:27.734Z,18.08
2023-03-30T14:33:55.423Z,20.48
2023-03-30T14:36:23.135Z,27.00
2023-03-30T14:38:53.634Z,28.80
2023-03-30T14:41:29.023Z,14.43
2023-03-30T14:44:08.368Z,15.13
2023-03-30T14:46:42.907Z,32.97
2023-03-30T14:49:30.654Z,11.88
2023-03-30T14:52:14.811Z,12.13
2023-03-30T14:54:48.777Z,6.95
2023-03-30T14:57:32.169Z,10.48
2023-03-30T15:00:25.316Z,9.73
2023-03-30T15:03:02.782Z,8.70
2023-03-30T15:05:34.431Z,7.63
2023-03-30T15:08:04.408Z,7.43
2023-03-30T15:10:44.505Z,9.70
2023-03-30T15:13:19.904Z,7.82
2023-03-30T15:15:47.152Z,7.10
2023-03-30T15:18:22.583Z,5.63
2023-03-30T15:20:51.291Z,10.38
2023-03-30T15:23:18.690Z,18.52
2023-03-30T15:25:46.277Z,24.73
2023-03-30T15:28:19.539Z,7.75
2023-03-30T15:30:53.099Z,11.90
2023-03-30T15:33:20.375Z,12.88
2023-03-30T15:35:52.113Z,27.08
2023-03-30T15:38:28.547Z,16.30
2023-03-30T15:40:55.621Z,12.00
2023-03-30T15:43:28.234Z,9.30
2023-03-30T15:46:05.844Z,13.20
2023-03-30T15:48:53.978Z,17.45
2023-03-30T15:51:36.434Z,10.85
2023-03-30T15:54:16.468Z,21.58
2023-03-30T15:57:13.616Z,24.15
2023-03-30T15:59:43.918Z,21.80
2023-03-30T16:02:21.388Z,25.53
2023-03-30T16:04:52.011Z,25.75
2023-03-30T16:07:27.385Z,19.77
2023-03-30T16:09:54.394Z,11.52
2023-03-30T16:12:28.109Z,16.58
2023-03-30T16:14:56.810Z,72.47
2023-03-30T16:17:24.130Z,51.92
2023-03-30T16:19:51.358Z,57.55
2023-03-30T16:22:18.743Z,54.42
2023-03-30T16:24:46.660Z,20.58
2023-03-30T16:27:15.378Z,18.42
2023-03-30T16:29:42.484Z,28.70
2023-03-30T16:32:09.735Z,15.35
2023-03-30T16:34:37.255Z,16.33
2023-03-30T16:37:04.249Z,14.00
2023-03-30T16:39:31.685Z,13.68
2023-03-30T16:41:58.687Z,11.73
2023-03-30T16:44:25.881Z,12.88
2023-03-30T16:46:54.084Z,26.08
2023-03-30T16:49:26.841Z,15.73
2023-03-30T16:51:57.522Z,46.40
2023-03-30T16:54:31.913Z,50.83
2023-03-30T16:57:03.823Z,21.60
2023-03-30T16:59:32.691Z,18.48
2023-03-30T17:02:00.683Z,18.73
2023-03-30T17:04:27.903Z,14.30
2023-03-30T17:06:55.322Z,16.10
2023-03-30T17:09:22.943Z,11.57
2023-03-30T17:11:51.219Z,9.45
2023-03-30T17:14:21.034Z,19.35
2023-03-30T17:16:48.115Z,12.65
2023-03-30T17:19:15.885Z,9.93
2023-03-30T17:21:44.343Z,6.35
2023-03-30T17:24:13.276Z,11.13
2023-03-30T17:26:41.475Z,18.88
2023-03-30T17:29:10.827Z,8.63
2023-03-30T17:31:39.103Z,7.28
2023-03-30T17:34:07.603Z,15.50
2023-03-30T17:36:34.680Z,15.38
2023-03-30T17:39:05.479Z,20.33
2023-03-30T17:41:34.038Z,30.15
2023-03-30T17:44:01.349Z,6.82
2023-03-30T17:46:28.672Z,8.15
2023-03-30T17:48:55.808Z,17.27
2023-03-30T17:51:22.871Z,9.35
2023-03-30T17:53:49.825Z,14.45
2023-03-30T17:56:17.109Z,7.70
2023-03-30T17:58:44.348Z,13.65
2023-03-30T18:01:13.253Z,24.65
2023-03-30T18:03:40.692Z,15.85
2023-03-30T18:06:08.614Z,12.48
2023-03-30T18:08:36.410Z,7.65
2023-03-30T18:11:04.689Z,10.75
2023-03-30T18:13:32.161Z,15.95
2023-03-30T18:16:00.739Z,17.52
2023-03-30T18:18:30.176Z,11.02
2023-03-30T18:21:05.558Z,11.73
2023-03-30T18:23:34.889Z,9.05
2023-03-30T18:26:04.244Z,7.07
2023-03-30T18:28:32.144Z,8.05
2023-03-30T18:31:01.099Z,5.57
2023-03-30T18:33:28.931Z,7.15
2023-03-30T18:36:05.363Z,6.95
2023-03-30T18:38:33.657Z,10.73
2023-03-30T18:41:01.848Z,8.73
2023-03-30T18:43:29.346Z,7.07
2023-03-30T18:46:01.043Z,3.80
2023-03-30T18:48:29.170Z,7.03
2023-03-30T18:50:57.063Z,6.82
2023-03-30T18:53:27.106Z,6.15
2023-03-30T18:55:58.261Z,16.85
2023-03-30T18:58:28.071Z,5.70
2023-03-30T19:00:56.280Z,5.55
2023-03-30T19:03:25.234Z,5.82
2023-03-30T19:05:52.508Z,4.88
2023-03-30T19:08:23.315Z,10.43
2023-03-30T19:10:53.424Z,5.72
2023-03-30T19:13:22.036Z,12.27
2023-03-30T19:15:51.396Z,5.63
2023-03-30T19:18:19.264Z,8.98
2023-03-30T19:20:50.358Z,18.77
2023-03-30T19:25:45.978Z,8.52
2023-03-30T19:28:15.566Z,2.97
2023-03-30T19:30:45.379Z,8.80
2023-03-30T19:33:20.207Z,9.82
2023-03-30T19:35:47.702Z,12.98
2023-03-30T19:38:15.681Z,12.18
2023-03-30T19:40:43.655Z,11.80
2023-03-30T19:43:11.581Z,6.43
2023-03-30T19:45:42.367Z,23.38
2023-03-30T19:48:10.699Z,15.55
2023-03-30T19:50:40.097Z,13.23
2023-03-30T19:53:07.599Z,8.25
2023-03-30T19:55:35.495Z,6.90
2023-03-30T19:58:02.857Z,10.30
2023-03-30T20:00:33.069Z,29.55
2023-03-30T20:03:00.441Z,10.80
2023-03-30T20:05:27.834Z,18.00
2023-03-30T20:07:55.004Z,27.92
2023-03-30T20:10:25.310Z,6.43
2023-03-30T20:12:53.426Z,25.98
2023-03-30T20:15:22.296Z,9.32
2023-03-30T20:17:49.697Z,21.45
2023-03-30T20:20:23.286Z,12.40
2023-03-30T20:22:54.061Z,7.32
2023-03-30T20:25:22.206Z,19.50
2023-03-30T20:27:49.919Z,17.73
2023-03-30T20:30:17.539Z,10.68
2023-03-30T20:32:59.551Z,8.82
2023-03-30T20:35:32.484Z,17.65
2023-03-30T20:37:59.884Z,14.95
2023-03-30T20:40:27.855Z,13.10
2023-03-30T20:43:03.738Z,14.82
2023-03-30T20:45:31.504Z,6.70
2023-03-30T20:47:59.014Z,20.33
2023-03-30T20:50:26.169Z,9.65
2023-03-30T20:52:54.362Z,11.07
2023-03-30T20:55:21.885Z,11.43
2023-03-30T20:57:48.935Z,20.95
2023-03-30T21:00:16.720Z,13.10
2023-03-30T21:02:44.022Z,32.90
2023-03-30T21:05:11.302Z,37.38
2023-03-30T21:07:42.770Z,46.65
2023-03-30T21:10:11.948Z,34.45
2023-03-30T21:12:39.121Z,37.97
2023-03-30T21:15:10.203Z,41.33
2023-03-30T21:20:09.647Z,63.15
2023-03-30T21:22:36.857Z,71.55
2023-03-30T21:25:04.148Z,51.78
2023-03-30T21:27:33.120Z,51.72
2023-03-30T21:30:00.294Z,42.35
2023-03-30T21:32:29.359Z,49.30
2023-03-30T21:34:58.422Z,43.85
2023-03-30T21:37:25.589Z,22.85
2023-03-30T21:39:53.692Z,33.28
2023-03-30T21:42:20.804Z,26.70
2023-03-30T21:44:48.011Z,25.20
2023-03-30T21:47:16.977Z,16.10
2023-03-30T21:49:44.313Z,23.55
2023-03-30T21:52:11.728Z,27.40
2023-03-30T21:54:38.805Z,20.33
2023-03-30T21:57:06.257Z,176.15
2023-03-30T21:59:33.268Z,74.70
2023-03-30T22:02:00.656Z,58.47
2023-03-30T22:04:28.009Z,65.88
2023-03-30T22:06:56.572Z,110.25
2023-03-30T22:09:23.985Z,96.10
2023-03-30T22:11:53.506Z,75.57
2023-03-30T22:14:20.819Z,42.05
2023-03-30T22:16:48.081Z,52.92
2023-03-30T22:19:15.344Z,50.95
2023-03-30T22:21:42.750Z,57.60
2023-03-30T22:24:12.382Z,39.35
2023-03-30T22:26:39.659Z,49.53
2023-03-30T22:29:07.114Z,35.55
2023-03-30T22:31:34.337Z,36.78
2023-03-30T22:34:01.493Z,29.85
2023-03-30T22:36:33.660Z,30.35
2023-03-30T22:39:02.557Z,30.17
2023-03-30T22:41:29.948Z,24.13
2023-03-30T22:43:58.712Z,22.80
2023-03-30T22:46:27.401Z,25.45
2023-03-30T22:48:56.235Z,21.27
2023-03-30T22:51:26.788Z,20.88
2023-03-30T22:54:00.252Z,20.23
2023-03-30T22:56:29.849Z,20.80
2023-03-30T22:58:57.495Z,21.17
2023-03-30T23:01:24.711Z,21.60
2023-03-30T23:03:53.532Z,18.80
2023-03-30T23:06:20.831Z,18.80
2023-03-30T23:08:49.174Z,22.05
2023-03-30T23:11:16.521Z,22.65
2023-03-30T23:13:43.624Z,19.05
2023-03-30T23:16:11.026Z,23.92
2023-03-30T23:18:38.660Z,22.85
2023-03-30T23:21:07.643Z,23.30
2023-03-30T23:23:38.679Z,25.10
2023-03-30T23:26:09.407Z,20.45
2023-03-30T23:31:15.827Z,21.27
2023-03-30T23:33:43.741Z,20.05
2023-03-30T23:36:17.605Z,17.65
2023-03-30T23:38:45.716Z,16.95
2023-03-30T23:41:17.936Z,16.98
2023-03-30T23:43:46.142Z,15.30
2023-03-30T23:46:13.904Z,19.67
2023-03-30T23:48:41.534Z,20.70
2023-03-30T23:51:09.479Z,17.55
2023-03-30T23:53:40.561Z,18.17
2023-03-30T23:58:41.762Z,14.30
